Time;durP1;ratioP1;P1;durP2;ratioP2;P2;SDS_P1;SDS_P2;PMS_P1;PMS_P2;Temp;Humidity;BMP_temperature;BMP_pressure;BME280_temperature;BME280_humidity;BME280_pressure;Samples;Min_cycle;Max_cycle;Signal;HPM_P1;HPM_P2
2022/07/11 00:00:07;;;;;;;6.90;3.05;;;;;;;14.48;100.00;99071.13;5089233;28;20044;-50
2022/07/11 00:02:34;;;;;;;6.80;3.92;;;;;;;14.48;100.00;99069.16;5089401;28;20052;-54
2022/07/11 00:05:02;;;;;;;6.35;3.15;;;;;;;14.50;100.00;99066.81;5089751;28;20511;-53
2022/07/11 00:07:29;;;;;;;4.32;2.80;;;;;;;14.54;100.00;99067.59;5089733;28;20093;-51
2022/07/11 00:09:55;;;;;;;5.78;2.83;;;;;;;14.59;100.00;99072.75;5089459;28;20055;-54
2022/07/11 00:12:25;;;;;;;4.57;2.90;;;;;;;14.57;100.00;99069.59;5089757;28;20078;-51
2022/07/11 00:14:51;;;;;;;5.53;2.90;;;;;;;14.57;100.00;99072.34;5089111;28;20059;-51
2022/07/11 00:17:17;;;;;;;5.40;2.80;;;;;;;14.51;100.00;99064.84;5089411;28;20511;-51
2022/07/11 00:19:45;;;;;;;4.78;2.97;;;;;;;14.58;100.00;99064.84;5089305;28;20485;-52
2022/07/11 00:22:12;;;;;;;8.13;2.47;;;;;;;14.61;100.00;99063.28;5089233;28;20052;-53
2022/07/11 00:24:39;;;;;;;4.90;2.70;;;;;;;14.53;100.00;99057.78;5089219;28;20044;-51
2022/07/11 00:27:05;;;;;;;10.27;4.25;;;;;;;14.58;100.00;99059.34;5089452;28;20145;-54
2022/07/11 00:29:32;;;;;;;6.03;3.50;;;;;;;14.57;100.00;99061.31;5092426;28;20056;-53
2022/07/11 00:31:59;;;;;;;5.22;2.88;;;;;;;14.62;100.00;99064.84;5092552;28;20109;-52
2022/07/11 00:34:26;;;;;;;6.95;3.00;;;;;;;14.68;100.00;99066.81;5093088;28;20154;-53
2022/07/11 00:36:52;;;;;;;3.35;2.40;;;;;;;14.71;100.00;99062.50;5092500;28;20576;-52
2022/07/11 00:39:19;;;;;;;6.93;2.70;;;;;;;14.78;100.00;99068.78;5093045;28;20093;-53
2022/07/11 00:41:46;;;;;;;4.18;2.75;;;;;;;14.85;100.00;99067.22;5092311;28;20576;-53
2022/07/11 00:44:12;;;;;;;6.28;3.53;;;;;;;14.73;100.00;99071.16;5092255;28;20099;-52
2022/07/11 00:46:39;;;;;;;7.65;3.40;;;;;;;14.73;100.00;99062.91;5092130;28;20084;-53
2022/07/11 00:49:05;;;;;;;5.95;2.75;;;;;;;14.80;100.00;99065.66;5092331;28;20216;-54
2022/07/11 00:51:31;;;;;;;4.28;2.33;;;;;;;14.91;100.00;99060.88;5092171;28;20139;-52
2022/07/11 00:53:58;;;;;;;6.95;2.65;;;;;;;14.94;100.00;99062.06;5092312;28;20144;-53
2022/07/11 00:56:27;;;;;;;5.70;2.20;;;;;;;15.00;100.00;99054.97;5092180;28;20048;-52
2022/07/11 00:58:54;;;;;;;4.53;2.28;;;;;;;14.76;100.00;99046.34;5091940;28;20059;-52
2022/07/11 01:01:20;;;;;;;6.18;3.20;;;;;;;14.93;100.00;99047.50;5092145;28;20145;-51
2022/07/11 01:03:48;;;;;;;5.18;2.25;;;;;;;14.97;100.00;99053.00;5091859;28;20464;-48
2022/07/11 01:06:14;;;;;;;6.10;2.30;;;;;;;15.02;100.00;99047.84;5092115;28;20051;-49
2022/07/11 01:08:41;;;;;;;4.80;2.30;;;;;;;14.94;100.00;99048.28;5091915;28;20052;-48
2022/07/11 01:11:12;;;;;;;9.25;4.43;;;;;;;14.88;100.00;99045.13;5092281;28;20090;-51
2022/07/11 01:13:39;;;;;;;6.10;2.10;;;;;;;14.99;100.00;99053.38;5092069;28;20059;-52
2022/07/11 01:16:14;;;;;;;4.40;2.03;;;;;;;14.97;100.00;99044.72;5092223;28;20052;-49
2022/07/11 01:18:41;;;;;;;6.15;2.20;;;;;;;14.94;100.00;99045.50;5091707;28;20044;-53
2022/07/11 01:21:19;;;;;;;6.70;2.00;;;;;;;14.90;100.00;99042.75;5091715;28;20052;-49
2022/07/11 01:23:46;;;;;;;4.80;2.35;;;;;;;14.85;100.00;99043.16;5091716;28;20059;-51
2022/07/11 01:26:13;;;;;;;5.28;2.90;;;;;;;14.79;100.00;99045.53;5091601;28;20097;-50
2022/07/11 01:28:39;;;;;;;3.83;2.03;;;;;;;14.76;100.00;99045.53;5091861;28;20470;-49
2022/07/11 01:31:05;;;;;;;2.35;1.80;;;;;;;14.77;100.00;99044.34;5091408;28;20048;-50
2022/07/11 01:33:33;;;;;;;3.42;2.10;;;;;;;14.70;100.00;99047.91;5091659;28;20087;-49
2022/07/11 01:36:01;;;;;;;9.00;2.30;;;;;;;14.69;100.00;99042.78;5091376;28;20052;-49
2022/07/11 01:38:27;;;;;;;3.50;2.00;;;;;;;14.59;100.00;99036.88;5091511;28;20517;-49
2022/07/11 01:40:54;;;;;;;5.00;2.40;;;;;;;14.62;100.00;99049.06;5091333;28;20047;-50
2022/07/11 01:43:21;;;;;;;4.85;2.63;;;;;;;14.64;100.00;99037.66;5091466;28;20494;-50
2022/07/11 01:45:50;;;;;;;4.40;1.95;;;;;;;14.62;100.00;99043.56;5091132;28;20048;-49
2022/07/11 01:48:16;;;;;;;5.25;2.00;;;;;;;14.58;100.00;99046.31;5091401;28;20620;-51
2022/07/11 01:50:42;;;;;;;4.03;2.00;;;;;;;14.58;100.00;99043.56;5091344;28;20052;-53
2022/07/11 01:53:08;;;;;;;3.80;2.17;;;;;;;14.50;100.00;99044.75;5091070;28;20052;-49
2022/07/11 01:55:35;;;;;;;5.30;2.50;;;;;;;14.54;100.00;99047.50;5091283;28;20133;-49
2022/07/11 01:58:02;;;;;;;7.43;2.75;;;;;;;14.49;100.00;99048.66;5091144;28;20070;-49
2022/07/11 02:00:28;;;;;;;2.17;1.83;;;;;;;14.51;100.00;99057.38;5091186;28;20052;-49
2022/07/11 02:02:55;;;;;;;2.70;1.80;;;;;;;14.49;100.00;99058.91;5090782;28;20142;-49
2022/07/11 02:05:22;;;;;;;3.67;1.90;;;;;;;14.40;100.00;99056.56;5091183;28;20044;-49
2022/07/11 02:10:32;;;;;;;8.90;1.88;;;;;;;14.46;100.00;99054.97;5091117;28;20109;-51
2022/07/11 02:13:00;;;;;;;5.90;2.60;;;;;;;14.35;100.00;99056.94;5090845;28;20055;-49
2022/07/11 02:15:28;;;;;;;5.55;2.17;;;;;;;14.33;100.00;99062.84;5090657;28;20478;-50
2022/07/11 02:17:54;;;;;;;5.30;2.25;;;;;;;14.26;100.00;99051.00;5090867;28;20460;-50
2022/07/11 02:20:21;;;;;;;4.43;2.60;;;;;;;14.35;100.00;99056.94;5090573;28;20056;-52
2022/07/11 02:22:48;;;;;;;4.63;1.95;;;;;;;14.32;100.00;99052.97;5090616;28;20059;-53
2022/07/11 02:25:14;;;;;;;4.82;2.28;;;;;;;14.40;100.00;99062.06;5090718;28;20047;-51
2022/07/11 02:27:41;;;;;;;5.35;2.28;;;;;;;14.42;100.00;99056.94;5090824;28;20075;-50
2022/07/11 02:30:08;;;;;;;5.30;1.77;;;;;;;14.53;100.00;99060.53;5090533;28;20089;-52
2022/07/11 02:32:35;;;;;;;8.40;2.28;;;;;;;14.60;100.00;99065.25;5090646;28;20098;-50
2022/07/11 02:35:01;;;;;;;3.67;2.13;;;;;;;14.64;100.00;99060.53;5090803;28;20495;-52
2022/07/11 02:37:27;;;;;;;6.20;2.10;;;;;;;14.53;100.00;99057.78;5090634;28;20052;-51
2022/07/11 02:39:54;;;;;;;4.78;2.08;;;;;;;14.67;100.00;99059.72;5090439;28;20047;-50
2022/07/11 02:42:20;;;;;;;5.32;2.10;;;;;;;14.68;100.00;99063.28;5090218;28;20087;-52
2022/07/11 02:44:47;;;;;;;2.17;1.77;;;;;;;14.57;100.00;99055.78;5090493;28;20139;-51
2022/07/11 02:47:13;;;;;;;3.50;2.60;;;;;;;14.66;100.00;99058.16;5090221;28;20056;-53
2022/07/11 02:49:41;;;;;;;3.55;2.10;;;;;;;14.77;100.00;99058.94;5090173;28;20055;-52
2022/07/11 02:52:07;;;;;;;1.83;1.50;;;;;;;14.75;100.00;99055.78;5089883;28;20051;-53
2022/07/11 02:54:34;;;;;;;4.93;2.10;;;;;;;14.72;100.00;99036.47;5090564;28;20185;-52
2022/07/11 02:57:01;;;;;;;6.13;2.00;;;;;;;14.75;100.00;99036.47;5090139;28;20059;-49
2022/07/11 02:59:27;;;;;;;7.15;1.80;;;;;;;14.75;100.00;99043.94;5090326;28;20509;-50
2022/07/11 03:01:54;;;;;;;2.75;1.70;;;;;;;14.78;100.00;99034.88;5090115;28;20144;-53
2022/07/11 03:04:20;;;;;;;3.83;2.03;;;;;;;14.67;100.00;99029.38;5090199;28;20502;-50
2022/07/11 03:06:47;;;;;;;6.03;2.70;;;;;;;14.75;100.00;99032.91;5090027;28;20487;-50
2022/07/11 03:09:13;;;;;;;4.30;2.50;;;;;;;14.61;100.00;99028.19;5090155;28;20048;-49
2022/07/11 03:11:40;;;;;;;6.10;2.53;;;;;;;14.80;100.00;99029.78;5090030;28;20480;-49
2022/07/11 03:14:06;;;;;;;1.88;1.70;;;;;;;14.82;100.00;99035.66;5089927;28;20455;-50
2022/07/11 03:16:32;;;;;;;3.25;1.45;;;;;;;15.11;100.00;99033.63;5089902;28;20524;-49
2022/07/11 03:18:59;;;;;;;2.35;1.65;;;;;;;15.65;100.00;99019.63;5089867;28;20104;-49
2022/07/11 03:21:25;;;;;;;4.32;2.53;;;;;;;16.05;100.00;98951.88;5089773;28;20131;-53
2022/07/11 03:23:52;;;;;;;2.97;1.58;;;;;;;16.38;100.00;98847.28;5089793;28;20087;-49
2022/07/11 03:26:18;;;;;;;5.05;2.00;;;;;;;16.98;100.00;98706.56;5090208;28;20102;-51
2022/07/11 03:28:45;;;;;;;3.63;1.70;;;;;;;17.15;100.00;98540.09;5089905;28;20430;-53
2022/07/11 03:31:11;;;;;;;2.60;1.98;;;;;;;16.92;100.00;98515.97;5090227;28;20083;-53
2022/07/11 03:33:37;;;;;;;4.60;2.20;;;;;;;16.66;100.00;98509.31;5089854;28;20056;-53
2022/07/11 03:36:04;;;;;;;3.70;1.85;;;;;;;16.39;100.00;98500.28;5090026;28;20135;-53
2022/07/11 03:38:30;;;;;;;2.47;1.65;;;;;;;16.08;100.00;98424.94;5089663;28;20070;-53
2022/07/11 03:40:57;;;;;;;3.65;1.80;;;;;;;15.98;100.00;98350.03;5089570;28;20121;-53
2022/07/11 03:43:23;;;;;;;3.13;1.80;;;;;;;16.19;100.00;98337.84;5089501;28;20121;-53
2022/07/11 03:45:50;;;;;;;3.60;1.70;;;;;;;16.77;100.00;98257.28;5089492;28;20138;-49
2022/07/11 03:48:16;;;;;;;5.03;1.92;;;;;;;17.22;100.00;98115.41;5089497;28;20139;-50
2022/07/11 03:50:43;;;;;;;6.30;1.95;;;;;;;17.55;100.00;98021.13;5089614;28;20091;-53
2022/07/11 03:53:09;;;;;;;2.97;2.10;;;;;;;17.87;100.00;97923.97;5089555;28;20479;-50
2022/07/11 03:55:37;;;;;;;3.40;2.20;;;;;;;18.41;100.00;97802.91;5089412;28;20135;-53
2022/07/11 03:58:04;;;;;;;4.75;1.95;;;;;;;17.85;100.00;97778.69;5089612;28;20399;-53
2022/07/11 04:00:31;;;;;;;3.90;1.90;;;;;;;17.84;100.00;97855.53;5089316;28;20052;-52
2022/07/11 04:02:57;;;;;;;4.85;1.95;;;;;;;17.81;100.00;97925.72;5090114;28;20052;-51
2022/07/11 04:05:24;;;;;;;4.10;2.13;;;;;;;18.23;100.00;97881.22;5092690;28;20089;-49
2022/07/11 04:07:50;;;;;;;2.70;1.90;;;;;;;18.27;100.00;97870.00;5092763;28;20492;-51
2022/07/11 04:10:17;;;;;;;3.65;1.90;;;;;;;18.01;100.00;97811.03;5092823;28;20048;-49
2022/07/11 04:12:43;;;;;;;10.82;1.98;;;;;;;17.49;100.00;97904.50;5093012;28;20423;-51
2022/07/11 04:15:11;;;;;;;4.22;2.30;;;;;;;17.43;100.00;97967.25;5092459;28;20193;-50
2022/07/11 04:17:38;;;;;;;3.00;2.00;;;;;;;17.52;100.00;98019.22;5092678;28;20056;-50
2022/07/11 04:20:05;;;;;;;3.63;2.10;;;;;;;17.28;100.00;98054.72;5092846;28;20506;-51
2022/07/11 04:22:31;;;;;;;5.45;2.10;;;;;;;17.41;100.00;98064.63;5092588;28;20048;-53
2022/07/11 04:24:58;;;;;;;4.22;2.00;;;;;;;17.63;100.00;98042.66;5092615;28;20079;-50
2022/07/11 04:27:25;;;;;;;3.30;2.10;;;;;;;17.86;100.00;97977.88;5092744;28;20105;-52
2022/07/11 04:29:51;;;;;;;4.35;2.50;;;;;;;17.74;100.00;97936.25;5092642;28;20138;-54
2022/07/11 04:32:18;;;;;;;2.80;1.73;;;;;;;17.79;100.00;97930.16;5092439;28;20052;-51
2022/07/11 04:34:44;;;;;;;3.08;2.40;;;;;;;17.64;100.00;97966.59;5092515;28;20052;-51
2022/07/11 04:37:11;;;;;;;4.80;2.20;;;;;;;17.71;100.00;97965.63;5092296;28;20052;-49
2022/07/11 04:39:37;;;;;;;4.05;2.05;;;;;;;17.48;100.00;98024.88;5092277;28;20233;-53
2022/07/11 04:42:06;;;;;;;3.70;2.40;;;;;;;17.27;100.00;98009.63;5092187;28;20050;-50
2022/07/11 04:44:32;;;;;;;3.78;1.83;;;;;;;17.42;100.00;98032.94;5092291;28;20060;-52
2022/07/11 04:46:59;;;;;;;3.95;1.80;;;;;;;17.36;100.00;98065.19;5091955;28;20044;-52
2022/07/11 04:49:26;;;;;;;7.38;2.72;;;;;;;17.59;100.00;98072.47;5092071;28;20395;-49
2022/07/11 04:51:52;;;;;;;5.47;2.05;;;;;;;17.88;100.00;98017.00;5092343;28;20097;-50
2022/07/11 04:54:18;;;;;;;4.10;2.10;;;;;;;18.60;100.00;97834.38;5092064;28;20064;-50
2022/07/11 04:56:45;;;;;;;6.20;2.67;;;;;;;19.50;100.00;97676.94;5092241;28;20396;-53
2022/07/11 04:59:11;;;;;;;4.07;2.30;;;;;;;20.64;100.00;97561.81;5091878;28;20537;-52
2022/07/11 05:01:37;;;;;;;7.18;2.33;;;;;;;21.64;100.00;97559.59;5092213;28;20135;-54
2022/07/11 05:04:04;;;;;;;4.13;2.53;;;;;;;22.28;100.00;97616.81;5091828;28;20044;-54
2022/07/11 05:06:31;;;;;;;3.35;2.08;;;;;;;22.29;100.00;97655.44;5091749;28;20154;-55
2022/07/11 05:08:57;;;;;;;3.22;2.15;;;;;;;22.93;100.00;97665.13;5091682;28;20051;-55
2022/07/11 05:11:23;;;;;;;2.55;2.05;;;;;;;22.76;100.00;97708.78;5091760;28;20044;-54
2022/07/11 05:13:49;;;;;;;7.88;2.10;;;;;;;23.02;100.00;97720.91;5091339;28;20055;-60
2022/07/11 05:16:16;;;;;;;4.28;1.85;;;;;;;22.95;100.00;97712.16;5091694;28;20138;-62
2022/07/11 05:18:42;;;;;;;6.25;1.95;;;;;;;23.12;100.00;97706.81;5091775;28;20286;-61
2022/07/11 05:21:08;;;;;;;4.05;2.00;;;;;;;23.58;100.00;97729.34;5091582;28;20080;-63
2022/07/11 05:23:35;;;;;;;4.18;1.95;;;;;;;24.26;100.00;97750.59;5091458;28;20052;-62
2022/07/11 05:26:04;;;;;;;6.13;2.67;;;;;;;25.01;100.00;97799.22;5091458;28;20465;-60
2022/07/11 05:28:30;;;;;;;5.82;1.92;;;;;;;25.31;100.00;97835.47;5091701;28;20083;-60
2022/07/11 05:30:56;;;;;;;7.38;2.00;;;;;;;25.88;100.00;97850.69;5091234;28;20088;-63
2022/07/11 05:33:22;;;;;;;6.82;1.90;;;;;;;26.33;100.00;97895.91;5091348;28;20064;-61
2022/07/11 05:35:49;;;;;;;3.97;1.70;;;;;;;25.62;100.00;97867.59;5091372;28;20455;-61
2022/07/11 05:38:15;;;;;;;3.30;2.05;;;;;;;26.21;100.00;97883.84;5091323;28;20077;-62
2022/07/11 05:40:43;;;;;;;3.15;1.80;;;;;;;26.02;100.00;97881.44;5091580;28;20080;-63
2022/07/11 05:43:10;;;;;;;5.70;2.05;;;;;;;26.08;100.00;97878.66;5091119;28;20048;-62
2022/07/11 05:45:37;;;;;;;4.72;1.83;;;;;;;26.48;100.00;97904.94;5091268;28;20048;-61
2022/07/11 05:48:03;;;;;;;5.85;1.90;;;;;;;26.35;100.00;97904.59;5091256;28;20059;-62
2022/07/11 05:50:29;;;;;;;5.97;1.65;;;;;;;26.19;100.00;97909.63;5091456;28;20596;-62
2022/07/11 05:52:57;;;;;;;6.57;1.70;;;;;;;26.63;100.00;97956.13;5091302;28;20154;-61
2022/07/11 05:55:23;;;;;;;4.13;1.92;;;;;;;26.41;100.00;97917.41;5091470;28;20067;-61
2022/07/11 05:57:50;;;;;;;4.03;1.83;;;;;;;26.75;100.00;97914.75;5091067;28;20055;-61
2022/07/11 06:00:16;;;;;;;7.70;1.90;;;;;;;26.98;100.00;97912.78;5091198;28;20915;-62
2022/07/11 06:02:44;;;;;;;5.32;1.80;;;;;;;27.60;100.00;97927.00;5090930;28;20062;-60
2022/07/11 06:05:11;;;;;;;3.58;1.77;;;;;;;27.67;100.00;97966.66;5090960;28;20079;-63
2022/07/11 06:10:22;;;;;;;5.25;2.08;;;;;;;28.55;100.00;97926.13;5090814;28;20047;-58
2022/07/11 06:12:48;;;;;;;5.65;1.80;;;;;;;28.73;100.00;97979.16;5090907;28;20189;-59
2022/07/11 06:15:15;;;;;;;2.70;1.73;;;;;;;29.12;100.00;97949.25;5090666;28;20052;-59
2022/07/11 06:17:42;;;;;;;7.38;2.10;;;;;;;28.98;100.00;97965.97;5090709;28;20465;-58
2022/07/11 06:20:09;;;;;;;4.55;1.98;;;;;;;28.97;100.00;97935.47;5090652;28;20079;-63
2022/07/11 06:22:35;;;;;;;10.00;2.40;;;;;;;29.07;100.00;97968.53;5090809;28;20523;-58
2022/07/11 06:25:02;;;;;;;6.47;2.33;;;;;;;29.08;100.00;97961.56;5090150;28;20052;-61
2022/07/11 06:27:28;;;;;;;4.75;1.90;;;;;;;29.00;100.00;97946.50;5090028;28;20530;-61
2022/07/11 06:29:54;;;;;;;4.95;1.77;;;;;;;29.61;100.00;98001.09;5090565;28;20134;-60
2022/07/11 06:32:23;;;;;;;3.92;2.15;;;;;;;29.53;100.00;98012.16;5090258;28;20138;-62
2022/07/11 06:34:50;;;;;;;5.75;2.15;;;;;;;29.39;100.00;98004.00;5090377;28;20105;-62
2022/07/11 06:37:16;;;;;;;3.97;1.90;;;;;;;29.57;100.00;98022.41;5090641;28;20407;-62
2022/07/11 06:39:42;;;;;;;4.78;1.90;;;;;;;29.46;100.00;98040.19;5090488;28;20048;-62
2022/07/11 06:42:08;;;;;;;4.25;1.80;;;;;;;29.92;100.00;98038.63;5090479;28;20134;-62
2022/07/11 06:44:35;;;;;;;6.25;1.80;;;;;;;29.94;100.00;98059.41;5090301;28;20060;-62
2022/07/11 06:47:01;;;;;;;3.25;1.50;;;;;;;29.75;100.00;98066.97;5090196;28;20044;-62
2022/07/11 06:49:28;;;;;;;8.10;1.75;;;;;;;29.69;100.00;98066.25;5090540;28;20407;-62
2022/07/11 06:51:54;;;;;;;8.32;1.90;;;;;;;29.80;100.00;98062.59;5090227;28;20055;-62
2022/07/11 06:54:20;;;;;;;3.97;1.50;;;;;;;29.44;100.00;98035.03;5090289;28;20066;-62
2022/07/11 06:56:47;;;;;;;4.18;1.90;;;;;;;29.55;100.00;98045.50;5090009;28;20139;-62
2022/07/11 06:59:13;;;;;;;4.60;1.73;;;;;;;29.28;100.00;98055.66;5090046;28;20091;-62
2022/07/11 07:01:39;;;;;;;4.50;1.70;;;;;;;29.33;100.00;98026.63;5090314;28;20558;-62
2022/07/11 07:04:05;;;;;;;4.55;1.60;;;;;;;29.27;100.00;98029.47;5089957;28;20063;-62
2022/07/11 07:06:32;;;;;;;6.55;1.70;;;;;;;29.93;100.00;98045.81;5089839;28;20138;-62
2022/07/11 07:08:59;;;;;;;5.10;1.65;;;;;;;29.84;100.00;98083.63;5090069;28;20102;-62
2022/07/11 07:11:25;;;;;;;5.40;1.58;;;;;;;30.19;100.00;98046.16;5090155;28;20043;-62
2022/07/11 07:13:51;;;;;;;4.43;1.50;;;;;;;30.70;100.00;98088.88;5089796;28;20157;-62
2022/07/11 07:16:18;;;;;;;3.92;1.33;;;;;;;30.73;100.00;98084.22;5089847;28;20393;-62
2022/07/11 07:18:45;;;;;;;4.05;1.30;;;;;;;30.82;100.00;98106.53;5089676;28;20514;-62
2022/07/11 07:21:12;;;;;;;2.63;1.30;;;;;;;30.73;100.00;98121.00;5089957;28;20052;-62
2022/07/11 07:23:39;;;;;;;2.70;1.20;;;;;;;30.44;100.00;98102.75;5089922;28;20143;-62
2022/07/11 07:26:05;;;;;;;2.42;1.30;;;;;;;30.25;100.00;98094.91;5089660;28;20507;-62
2022/07/11 07:28:31;;;;;;;3.70;1.17;;;;;;;29.37;100.00;98086.41;5089635;28;20134;-62
2022/07/11 07:30:58;;;;;;;2.20;1.20;;;;;;;29.35;100.00;98096.69;5089587;28;20051;-62
2022/07/11 07:33:25;;;;;;;3.28;1.13;;;;;;;29.84;100.00;98085.69;5089838;28;20121;-62
2022/07/11 07:35:51;;;;;;;8.13;1.50;;;;;;;29.85;100.00;98076.66;5089888;28;20556;-62
2022/07/11 07:38:17;;;;;;;5.63;1.40;;;;;;;29.98;100.00;98095.84;5092819;28;20174;-63
2022/07/11 07:40:44;;;;;;;4.82;1.10;;;;;;;30.05;100.00;98098.13;5092996;28;20052;-61
2022/07/11 07:43:11;;;;;;;5.05;1.50;;;;;;;30.22;100.00;98118.59;5093147;28;20618;-61
2022/07/11 07:45:37;;;;;;;17.92;1.40;;;;;;;29.84;100.00;98086.44;5093501;28;20134;-63
2022/07/11 07:48:04;;;;;;;3.78;1.20;;;;;;;29.95;100.00;98108.97;5093103;28;20051;-63
2022/07/11 07:50:30;;;;;;;5.78;1.48;;;;;;;30.22;100.00;98084.69;5092932;28;20496;-63
2022/07/11 07:52:56;;;;;;;1.88;1.13;;;;;;;30.76;100.00;98083.22;5092919;28;20139;-63
2022/07/11 07:55:23;;;;;;;5.10;1.10;;;;;;;31.04;100.00;98110.44;5093122;28;20072;-59
2022/07/11 07:57:50;;;;;;;4.28;1.20;;;;;;;31.12;100.00;98112.16;5093060;28;20185;-62
2022/07/11 08:03:05;;;;;;;3.58;1.20;;;;;;;30.98;100.00;98104.06;5092754;28;20047;-62
2022/07/11 08:05:31;;;;;;;2.83;1.55;;;;;;;30.50;100.00;98083.69;5092554;28;20048;-61
2022/07/11 08:07:57;;;;;;;2.80;1.15;;;;;;;29.73;100.00;98080.88;5092871;28;20185;-58
2022/07/11 08:10:23;;;;;;;4.78;1.17;;;;;;;29.43;100.00;98060.97;5092567;28;20048;-59
2022/07/11 08:12:50;;;;;;;4.97;1.38;;;;;;;30.15;100.00;98096.50;5092676;28;20074;-58
2022/07/11 08:15:16;;;;;;;2.65;1.17;;;;;;;30.69;100.00;98112.03;5092812;28;20069;-57
2022/07/11 08:17:43;;;;;;;2.85;1.30;;;;;;;30.80;100.00;98128.94;5092665;28;20055;-60
2022/07/11 08:20:10;;;;;;;4.25;1.02;;;;;;;30.85;100.00;98099.81;5092552;28;20063;-58
2022/07/11 08:22:36;;;;;;;2.25;1.35;;;;;;;29.51;100.00;98071.19;5092441;28;20051;-62
2022/07/11 08:25:03;;;;;;;3.47;1.42;;;;;;;30.11;100.00;98069.81;5092889;28;20056;-62
2022/07/11 08:27:29;;;;;;;6.47;1.40;;;;;;;29.97;100.00;98088.69;5092682;28;20055;-64
2022/07/11 08:29:58;;;;;;;3.70;1.35;;;;;;;29.18;100.00;98089.03;5092502;28;20044;-62
2022/07/11 08:32:24;;;;;;;5.50;1.67;;;;;;;29.62;100.00;98095.03;5092506;28;20048;-64
2022/07/11 08:34:50;;;;;;;5.85;1.33;;;;;;;29.69;100.00;98098.09;5092300;28;20056;-64
2022/07/11 08:37:17;;;;;;;5.45;1.40;;;;;;;29.43;100.00;98100.50;5092411;28;20048;-63
2022/07/11 08:39:43;;;;;;;2.15;1.48;;;;;;;29.69;100.00;98100.13;5092504;28;20537;-62
2022/07/11 08:42:09;;;;;;;5.70;1.40;;;;;;;30.39;100.00;98124.13;5092214;28;20131;-61
2022/07/11 08:44:37;;;;;;;3.28;1.30;;;;;;;30.47;100.00;98130.72;5092267;28;20101;-62
2022/07/11 08:47:05;;;;;;;1.90;1.17;;;;;;;30.46;100.00;98156.72;5092078;28;20043;-62
2022/07/11 08:49:31;;;;;;;5.22;1.30;;;;;;;29.99;100.00;98156.72;5091192;28;20052;-62
2022/07/11 08:51:58;;;;;;;8.18;1.02;;;;;;;29.54;100.00;98118.16;5091948;28;20068;-62
2022/07/11 08:54:25;;;;;;;2.92;0.90;;;;;;;28.42;100.00;98117.59;5091909;28;20489;-59
2022/07/11 08:56:54;;;;;;;7.32;0.93;;;;;;;28.07;100.00;98097.06;5092127;28;20052;-58
2022/07/11 08:59:23;;;;;;;2.90;1.33;;;;;;;27.99;100.00;98112.13;5091823;28;20489;-59
2022/07/11 09:01:51;;;;;;;3.20;1.10;;;;;;;27.53;100.00;98114.06;5091817;28;20578;-58
2022/07/11 09:04:19;;;;;;;2.25;0.70;;;;;;;27.69;100.00;98129.44;5091699;28;20047;-59
2022/07/11 09:06:45;;;;;;;1.30;1.13;;;;;;;29.00;100.00;98118.59;5092047;28;20048;-58
2022/07/11 09:09:12;;;;;;;2.70;1.10;;;;;;;29.35;100.00;98139.78;5091734;28;20047;-58
2022/07/11 09:11:52;;;;;;;2.40;1.15;;;;;;;28.82;100.00;98144.50;5091713;28;20051;-58
2022/07/11 09:14:23;;;;;;;1.77;1.05;;;;;;;29.46;100.00;98148.22;5091810;28;20559;-58
2022/07/11 09:16:53;;;;;;;2.55;1.20;;;;;;;28.85;100.00;98137.81;5091578;28;20044;-58
2022/07/11 09:19:24;;;;;;;3.80;0.90;;;;;;;28.24;100.00;98121.66;5091600;28;20051;-58
2022/07/11 09:27:43;;;;;;;1.38;1.00;;;;;;;29.11;100.00;98105.75;5091672;28;20097;-59
2022/07/11 09:30:31;;;;;;;1.95;1.40;;;;;;;28.75;100.00;98103.47;5091548;28;20044;-59
2022/07/11 09:32:59;;;;;;;7.45;1.40;;;;;;;27.08;100.00;98104.59;5088245;28;20048;-59
2022/07/11 09:35:28;;;;;;;1.05;0.90;;;;;;;27.62;100.00;98094.13;5091272;28;20052;-59
2022/07/11 09:37:55;;;;;;;2.17;1.05;;;;;;;28.08;100.00;98101.41;5091494;28;20104;-59
2022/07/11 09:40:22;;;;;;;2.47;1.00;;;;;;;28.38;100.00;98107.31;5091119;28;20138;-59
2022/07/11 09:42:50;;;;;;;5.22;1.73;;;;;;;27.61;100.00;98080.53;5091344;28;20499;-58
2022/07/11 09:45:18;;;;;;;4.53;1.17;;;;;;;26.41;100.00;98055.06;5091062;28;20192;-59
2022/07/11 09:47:45;;;;;;;2.90;1.23;;;;;;;25.99;100.00;98047.31;5090947;28;20052;-58
2022/07/11 09:50:13;;;;;;;2.65;1.23;;;;;;;26.09;100.00;98031.88;5091138;28;20056;-58
2022/07/11 09:52:44;;;;;;;2.00;1.30;;;;;;;25.98;100.00;98020.53;5091070;28;20051;-59
2022/07/11 09:55:10;;;;;;;3.80;1.30;;;;;;;26.51;100.00;98016.34;5090907;28;20056;-59
2022/07/11 09:57:37;;;;;;;4.63;1.25;;;;;;;26.82;100.00;98029.53;5090841;28;20135;-59
2022/07/11 10:00:06;;;;;;;3.47;1.20;;;;;;;27.09;100.00;98035.81;5090603;28;20113;-59
2022/07/11 10:02:32;;;;;;;2.90;1.30;;;;;;;26.27;100.00;98044.75;5090322;28;20051;-59
2022/07/11 10:04:59;;;;;;;4.43;1.30;;;;;;;26.12;100.00;98028.03;5091005;28;20052;-59
2022/07/11 10:07:26;;;;;;;4.07;1.48;;;;;;;25.89;100.00;97989.81;5090673;28;20085;-59
2022/07/11 10:09:53;;;;;;;3.55;1.30;;;;;;;26.13;100.00;98026.03;5090567;28;20525;-59
2022/07/11 10:12:20;;;;;;;3.38;1.27;;;;;;;26.38;100.00;98030.78;5090602;28;20139;-59
2022/07/11 10:14:49;;;;;;;4.97;1.42;;;;;;;26.29;100.00;98037.38;5090608;28;20631;-58
2022/07/11 10:17:23;;;;;;;1.63;1.02;;;;;;;26.27;100.00;98039.91;5090730;28;20060;-58
2022/07/11 10:20:00;;;;;;;2.65;1.30;;;;;;;26.23;100.00;98002.84;5090580;28;20048;-56
2022/07/11 10:22:35;;;;;;;3.65;1.40;;;;;;;26.17;100.00;98006.91;5090796;28;20044;-57
2022/07/11 10:25:12;;;;;;;2.13;1.17;;;;;;;26.07;100.00;98014.72;5090642;28;20083;-56
2022/07/11 10:27:53;;;;;;;4.25;1.25;;;;;;;25.44;100.00;98004.16;5090467;28;20076;-57
2022/07/11 10:30:40;;;;;;;3.10;1.65;;;;;;;25.05;100.00;97958.81;5090453;28;20134;-56
2022/07/11 10:33:07;;;;;;;1.67;1.10;;;;;;;25.16;100.00;97989.84;5090331;28;20186;-58
2022/07/11 10:35:34;;;;;;;1.63;1.10;;;;;;;25.52;100.00;97968.00;5090529;28;20487;-56
2022/07/11 10:38:05;;;;;;;4.50;1.23;;;;;;;25.50;100.00;97929.25;5090331;28;20051;-58
2022/07/11 10:40:47;;;;;;;3.50;1.27;;;;;;;25.67;100.00;97959.50;5090598;28;20185;-57
2022/07/11 10:43:15;;;;;;;3.60;1.65;;;;;;;25.11;100.00;97937.22;5090201;28;20094;-59
2022/07/11 10:45:56;;;;;;;4.28;1.20;;;;;;;25.53;100.00;97922.63;5090170;28;20096;-57
2022/07/11 10:48:23;;;;;;;2.03;1.20;;;;;;;25.70;100.00;97907.97;5090182;28;20055;-55
2022/07/11 10:50:55;;;;;;;4.60;1.40;;;;;;;25.15;100.00;97918.19;5090383;28;20131;-56
2022/07/11 10:53:23;;;;;;;7.20;1.30;;;;;;;24.94;100.00;97928.63;5090426;28;20054;-58
2022/07/11 10:56:02;;;;;;;1.05;0.90;;;;;;;25.10;100.00;97978.53;5090340;28;20052;-56
2022/07/11 10:58:31;;;;;;;3.53;1.20;;;;;;;24.96;100.00;97989.81;5090635;28;20048;-56
2022/07/11 11:01:13;;;;;;;2.28;1.00;;;;;;;25.19;100.00;97958.00;5090223;28;20101;-58
2022/07/11 11:03:40;;;;;;;3.60;1.20;;;;;;;25.51;100.00;97930.78;5089132;28;20063;-56
2022/07/11 11:06:07;;;;;;;4.78;1.20;;;;;;;24.89;100.00;97887.28;5089858;28;20044;-55
2022/07/11 11:08:47;;;;;;;1.45;1.20;;;;;;;24.81;100.00;97900.97;5090044;28;20056;-56
2022/07/11 11:11:38;;;;;;;4.50;1.20;;;;;;;25.16;100.00;97925.34;5089690;28;20074;-56
2022/07/11 11:14:25;;;;;;;3.38;1.35;;;;;;;25.33;100.00;97922.72;5089699;28;20052;-57
2022/07/11 11:16:52;;;;;;;4.93;1.20;;;;;;;25.13;100.00;97945.19;5089721;28;20087;-56
2022/07/11 11:19:50;;;;;;;2.72;1.50;;;;;;;25.21;100.00;97969.50;5089860;28;20085;-57
2022/07/11 11:22:18;;;;;;;1.95;1.20;;;;;;;25.48;100.00;98012.38;5089878;28;20564;-56
2022/07/11 11:24:45;;;;;;;2.75;1.52;;;;;;;25.33;100.00;98021.66;5090046;28;20163;-58
2022/07/11 11:27:18;;;;;;;3.28;1.17;;;;;;;25.24;100.00;98004.97;5089783;28;20052;-56
2022/07/11 11:29:45;;;;;;;3.88;1.10;;;;;;;25.21;100.00;98019.22;5089810;28;20418;-58
2022/07/11 11:32:11;;;;;;;4.22;1.30;;;;;;;25.47;100.00;98008.78;5089521;28;20052;-55
2022/07/11 11:34:40;;;;;;;3.20;2.80;;;;;;;25.68;100.00;98006.69;5089563;28;20074;-56
2022/07/11 11:37:07;;;;;;;3.05;1.20;;;;;;;25.21;100.00;97977.91;5089355;28;20059;-56
2022/07/11 11:39:35;;;;;;;4.65;2.03;;;;;;;25.55;100.00;97950.94;5089618;28;20113;-58